sensor_id;sensor_type;location;lat;lon;timestamp;temperature;humidity
64620;DHT22;51029;51.058;13.826;2022-10-16T00:01:33;14.20;99.90
64620;DHT22;51029;51.058;13.826;2022-10-16T00:04:00;14.20;99.90
64620;DHT22;51029;51.058;13.826;2022-10-16T00:06:26;14.10;99.90
64620;DHT22;51029;51.058;13.826;2022-10-16T00:08:53;14.10;99.90
64620;DHT22;51029;51.058;13.826;2022-10-16T00:11:22;14.10;99.90
64620;DHT22;51029;51.058;13.826;2022-10-16T00:13:50;14.00;99.90
64620;DHT22;51029;51.058;13.826;2022-10-16T00:16:16;14.00;99.90
64620;DHT22;51029;51.058;13.826;2022-10-16T00:18:42;14.00;99.90
64620;DHT22;51029;51.058;13.826;2022-10-16T00:21:13;14.00;99.90
64620;DHT22;51029;51.058;13.826;2022-10-16T00:23:39;14.00;99.90
64620;DHT22;51029;51.058;13.826;2022-10-16T00:26:08;14.00;99.90
64620;DHT22;51029;51.058;13.826;2022-10-16T00:28:34;14.00;99.90
64620;DHT22;51029;51.058;13.826;2022-10-16T00:31:06;14.00;99.90
64620;DHT22;51029;51.058;13.826;2022-10-16T00:33:33;14.00;99.90
64620;DHT22;51029;51.058;13.826;2022-10-16T00:36:00;14.00;99.90
64620;DHT22;51029;51.058;13.826;2022-10-16T00:38:26;14.00;99.90
64620;DHT22;51029;51.058;13.826;2022-10-16T00:40:51;13.90;99.90
64620;DHT22;51029;51.058;13.826;2022-10-16T00:45:58;13.90;99.90
64620;DHT22;51029;51.058;13.826;2022-10-16T00:48:24;13.90;99.90
64620;DHT22;51029;51.058;13.826;2022-10-16T00:50:49;13.90;99.90
64620;DHT22;51029;51.058;13.826;2022-10-16T00:53:16;13.90;99.90
64620;DHT22;51029;51.058;13.826;2022-10-16T00:55:42;13.80;99.90
64620;DHT22;51029;51.058;13.826;2022-10-16T00:58:08;13.80;99.90
64620;DHT22;51029;51.058;13.826;2022-10-16T01:00:34;13.90;99.90
64620;DHT22;51029;51.058;13.826;2022-10-16T01:03:01;13.90;99.90
64620;DHT22;51029;51.058;13.826;2022-10-16T01:05:44;14.00;99.90
64620;DHT22;51029;51.058;13.826;2022-10-16T01:08:26;14.00;99.90
64620;DHT22;51029;51.058;13.826;2022-10-16T01:10:59;14.00;99.90
64620;DHT22;51029;51.058;13.826;2022-10-16T01:13:41;14.10;99.90
64620;DHT22;51029;51.058;13.826;2022-10-16T01:19:36;14.20;99.90
64620;DHT22;51029;51.058;13.826;2022-10-16T01:22:07;14.30;99.90
64620;DHT22;51029;51.058;13.826;2022-10-16T01:24:45;14.40;99.90
64620;DHT22;51029;51.058;13.826;2022-10-16T01:27:24;14.40;99.90
64620;DHT22;51029;51.058;13.826;2022-10-16T01:29:54;14.50;99.90
64620;DHT22;51029;51.058;13.826;2022-10-16T01:35:28;14.60;99.90
64620;DHT22;51029;51.058;13.826;2022-10-16T01:40:29;14.70;99.90
64620;DHT22;51029;51.058;13.826;2022-10-16T01:43:08;14.70;99.90
64620;DHT22;51029;51.058;13.826;2022-10-16T01:45:35;14.70;99.90
64620;DHT22;51029;51.058;13.826;2022-10-16T01:48:04;14.80;99.90
64620;DHT22;51029;51.058;13.826;2022-10-16T01:50:35;14.80;99.90
64620;DHT22;51029;51.058;13.826;2022-10-16T01:53:03;14.80;99.90
64620;DHT22;51029;51.058;13.826;2022-10-16T01:55:33;14.90;99.90
64620;DHT22;51029;51.058;13.826;2022-10-16T01:58:02;14.90;99.90
64620;DHT22;51029;51.058;13.826;2022-10-16T02:00:29;14.90;99.90
64620;DHT22;51029;51.058;13.826;2022-10-16T02:02:58;14.90;99.90
64620;DHT22;51029;51.058;13.826;2022-10-16T02:05:46;14.90;99.90
64620;DHT22;51029;51.058;13.826;2022-10-16T02:08:12;14.90;99.90
64620;DHT22;51029;51.058;13.826;2022-10-16T02:10:38;14.90;99.90
64620;DHT22;51029;51.058;13.826;2022-10-16T02:13:11;14.90;99.90
64620;DHT22;51029;51.058;13.826;2022-10-16T02:15:38;15.00;99.90
64620;DHT22;51029;51.058;13.826;2022-10-16T02:18:05;15.00;99.90
64620;DHT22;51029;51.058;13.826;2022-10-16T02:20:53;15.00;99.90
64620;DHT22;51029;51.058;13.826;2022-10-16T02:23:49;15.00;99.90
64620;DHT22;51029;51.058;13.826;2022-10-16T02:26:15;15.00;99.90
64620;DHT22;51029;51.058;13.826;2022-10-16T02:28:48;15.00;99.90
64620;DHT22;51029;51.058;13.826;2022-10-16T02:31:23;15.10;99.90
64620;DHT22;51029;51.058;13.826;2022-10-16T02:33:50;15.10;99.90
64620;DHT22;51029;51.058;13.826;2022-10-16T02:36:18;15.10;99.90
64620;DHT22;51029;51.058;13.826;2022-10-16T02:38:44;15.10;99.90
64620;DHT22;51029;51.058;13.826;2022-10-16T02:41:10;15.10;99.90
64620;DHT22;51029;51.058;13.826;2022-10-16T02:43:35;15.10;99.90
64620;DHT22;51029;51.058;13.826;2022-10-16T02:46:01;15.10;99.90
64620;DHT22;51029;51.058;13.826;2022-10-16T02:48:26;15.10;99.90
64620;DHT22;51029;51.058;13.826;2022-10-16T02:50:52;15.10;99.90
64620;DHT22;51029;51.058;13.826;2022-10-16T02:53:17;15.10;99.90
64620;DHT22;51029;51.058;13.826;2022-10-16T02:55:43;15.10;99.90
64620;DHT22;51029;51.058;13.826;2022-10-16T02:58:09;15.10;99.90
64620;DHT22;51029;51.058;13.826;2022-10-16T03:00:35;15.20;99.90
64620;DHT22;51029;51.058;13.826;2022-10-16T03:03:00;15.20;99.90
64620;DHT22;51029;51.058;13.826;2022-10-16T03:05:26;15.20;99.90
64620;DHT22;51029;51.058;13.826;2022-10-16T03:07:51;15.20;99.90
64620;DHT22;51029;51.058;13.826;2022-10-16T03:10:18;15.20;99.90
64620;DHT22;51029;51.058;13.826;2022-10-16T03:12:43;15.20;99.90
64620;DHT22;51029;51.058;13.826;2022-10-16T03:15:09;15.20;99.90
64620;DHT22;51029;51.058;13.826;2022-10-16T03:17:35;15.20;99.90
64620;DHT22;51029;51.058;13.826;2022-10-16T03:20:00;15.20;99.90
64620;DHT22;51029;51.058;13.826;2022-10-16T03:22:26;15.20;99.90
64620;DHT22;51029;51.058;13.826;2022-10-16T03:24:51;15.20;99.90
64620;DHT22;51029;51.058;13.826;2022-10-16T03:27:17;15.20;99.90
64620;DHT22;51029;51.058;13.826;2022-10-16T03:29:43;15.20;99.90
64620;DHT22;51029;51.058;13.826;2022-10-16T03:32:08;15.10;99.90
64620;DHT22;51029;51.058;13.826;2022-10-16T03:34:34;15.10;99.90
64620;DHT22;51029;51.058;13.826;2022-10-16T03:36:59;15.00;99.90
64620;DHT22;51029;51.058;13.826;2022-10-16T03:39:25;15.00;99.90
64620;DHT22;51029;51.058;13.826;2022-10-16T03:41:50;15.00;99.90
64620;DHT22;51029;51.058;13.826;2022-10-16T03:44:16;15.00;99.90
64620;DHT22;51029;51.058;13.826;2022-10-16T03:46:41;15.10;99.90
64620;DHT22;51029;51.058;13.826;2022-10-16T03:49:07;15.00;99.90
64620;DHT22;51029;51.058;13.826;2022-10-16T03:51:33;15.00;99.90
64620;DHT22;51029;51.058;13.826;2022-10-16T03:53:58;14.90;99.90
64620;DHT22;51029;51.058;13.826;2022-10-16T03:56:24;14.90;99.90
64620;DHT22;51029;51.058;13.826;2022-10-16T03:58:49;14.90;99.90
64620;DHT22;51029;51.058;13.826;2022-10-16T04:01:15;14.80;99.90
64620;DHT22;51029;51.058;13.826;2022-10-16T04:03:40;14.80;99.90
64620;DHT22;51029;51.058;13.826;2022-10-16T04:06:06;14.80;99.90
64620;DHT22;51029;51.058;13.826;2022-10-16T04:08:31;14.70;99.90
64620;DHT22;51029;51.058;13.826;2022-10-16T04:11:00;14.70;99.90
64620;DHT22;51029;51.058;13.826;2022-10-16T04:13:26;14.70;99.90
64620;DHT22;51029;51.058;13.826;2022-10-16T04:15:51;14.70;99.90
64620;DHT22;51029;51.058;13.826;2022-10-16T04:18:17;14.70;99.90
64620;DHT22;51029;51.058;13.826;2022-10-16T04:20:42;14.70;99.90
64620;DHT22;51029;51.058;13.826;2022-10-16T04:23:08;14.70;99.90
64620;DHT22;51029;51.058;13.826;2022-10-16T04:25:34;14.80;99.90
64620;DHT22;51029;51.058;13.826;2022-10-16T04:27:59;14.80;99.90
64620;DHT22;51029;51.058;13.826;2022-10-16T04:30:25;14.80;99.90
64620;DHT22;51029;51.058;13.826;2022-10-16T04:32:51;14.80;99.90
64620;DHT22;51029;51.058;13.826;2022-10-16T04:35:18;14.80;99.90
64620;DHT22;51029;51.058;13.826;2022-10-16T04:37:44;14.80;99.90
64620;DHT22;51029;51.058;13.826;2022-10-16T04:40:10;14.70;99.90
64620;DHT22;51029;51.058;13.826;2022-10-16T04:42:36;14.70;99.90
64620;DHT22;51029;51.058;13.826;2022-10-16T04:45:02;14.70;99.90
64620;DHT22;51029;51.058;13.826;2022-10-16T04:47:27;14.80;99.90
64620;DHT22;51029;51.058;13.826;2022-10-16T04:49:53;14.70;99.90
64620;DHT22;51029;51.058;13.826;2022-10-16T04:52:19;14.70;99.90
64620;DHT22;51029;51.058;13.826;2022-10-16T04:54:46;14.70;99.90
64620;DHT22;51029;51.058;13.826;2022-10-16T04:57:12;14.70;99.90
64620;DHT22;51029;51.058;13.826;2022-10-16T04:59:37;14.70;99.90
64620;DHT22;51029;51.058;13.826;2022-10-16T05:02:03;14.70;99.90
64620;DHT22;51029;51.058;13.826;2022-10-16T05:04:29;14.70;99.90
64620;DHT22;51029;51.058;13.826;2022-10-16T05:06:54;14.70;99.90
64620;DHT22;51029;51.058;13.826;2022-10-16T05:09:20;14.70;99.90
64620;DHT22;51029;51.058;13.826;2022-10-16T05:11:45;14.70;99.90
64620;DHT22;51029;51.058;13.826;2022-10-16T05:14:11;14.70;99.90
64620;DHT22;51029;51.058;13.826;2022-10-16T05:16:37;14.70;99.90
64620;DHT22;51029;51.058;13.826;2022-10-16T05:19:02;14.70;99.90
64620;DHT22;51029;51.058;13.826;2022-10-16T05:21:28;14.70;99.90
64620;DHT22;51029;51.058;13.826;2022-10-16T05:23:53;14.70;99.90
64620;DHT22;51029;51.058;13.826;2022-10-16T05:26:20;14.70;99.90
64620;DHT22;51029;51.058;13.826;2022-10-16T05:28:46;14.70;99.90
64620;DHT22;51029;51.058;13.826;2022-10-16T05:31:11;14.70;99.90
64620;DHT22;51029;51.058;13.826;2022-10-16T05:33:37;14.70;99.90
64620;DHT22;51029;51.058;13.826;2022-10-16T05:36:07;14.70;99.90
64620;DHT22;51029;51.058;13.826;2022-10-16T05:38:37;14.70;99.90
64620;DHT22;51029;51.058;13.826;2022-10-16T05:41:04;14.60;99.90
64620;DHT22;51029;51.058;13.826;2022-10-16T05:43:30;14.70;99.90
64620;DHT22;51029;51.058;13.826;2022-10-16T05:46:04;14.70;99.90
64620;DHT22;51029;51.058;13.826;2022-10-16T05:48:30;14.70;99.90
64620;DHT22;51029;51.058;13.826;2022-10-16T05:51:07;14.70;99.90
64620;DHT22;51029;51.058;13.826;2022-10-16T05:53:34;14.80;99.90
64620;DHT22;51029;51.058;13.826;2022-10-16T05:56:00;14.80;99.90
64620;DHT22;51029;51.058;13.826;2022-10-16T05:58:32;14.80;99.90
64620;DHT22;51029;51.058;13.826;2022-10-16T06:01:00;14.80;99.90
64620;DHT22;51029;51.058;13.826;2022-10-16T06:03:26;14.90;99.90
64620;DHT22;51029;51.058;13.826;2022-10-16T06:05:52;14.90;99.90
64620;DHT22;51029;51.058;13.826;2022-10-16T06:08:21;15.10;99.90
64620;DHT22;51029;51.058;13.826;2022-10-16T06:10:48;15.20;99.90
64620;DHT22;51029;51.058;13.826;2022-10-16T06:13:14;15.20;99.90
64620;DHT22;51029;51.058;13.826;2022-10-16T06:15:41;15.20;99.90
64620;DHT22;51029;51.058;13.826;2022-10-16T06:18:08;15.20;99.90
64620;DHT22;51029;51.058;13.826;2022-10-16T06:20:34;15.30;99.90
64620;DHT22;51029;51.058;13.826;2022-10-16T06:23:00;15.40;99.90
64620;DHT22;51029;51.058;13.826;2022-10-16T06:25:25;15.40;99.90
64620;DHT22;51029;51.058;13.826;2022-10-16T06:27:51;15.50;99.90
64620;DHT22;51029;51.058;13.826;2022-10-16T06:30:16;15.60;99.90
64620;DHT22;51029;51.058;13.826;2022-10-16T06:32:42;15.70;99.90
64620;DHT22;51029;51.058;13.826;2022-10-16T06:35:07;15.70;99.90
64620;DHT22;51029;51.058;13.826;2022-10-16T06:37:33;15.70;99.90
64620;DHT22;51029;51.058;13.826;2022-10-16T06:39:58;15.70;99.90
64620;DHT22;51029;51.058;13.826;2022-10-16T06:42:25;15.70;99.90
64620;DHT22;51029;51.058;13.826;2022-10-16T06:44:51;15.80;99.90
64620;DHT22;51029;51.058;13.826;2022-10-16T06:47:16;15.80;99.90
64620;DHT22;51029;51.058;13.826;2022-10-16T06:49:42;16.00;99.90
64620;DHT22;51029;51.058;13.826;2022-10-16T06:52:07;16.10;99.90
64620;DHT22;51029;51.058;13.826;2022-10-16T06:54:33;16.20;99.90
64620;DHT22;51029;51.058;13.826;2022-10-16T06:56:58;16.40;99.90
64620;DHT22;51029;51.058;13.826;2022-10-16T06:59:25;16.50;99.90
64620;DHT22;51029;51.058;13.826;2022-10-16T07:01:51;16.60;99.90
64620;DHT22;51029;51.058;13.826;2022-10-16T07:04:16;16.80;99.90
64620;DHT22;51029;51.058;13.826;2022-10-16T07:06:42;16.80;99.90
64620;DHT22;51029;51.058;13.826;2022-10-16T07:09:09;16.90;99.90
64620;DHT22;51029;51.058;13.826;2022-10-16T07:11:37;16.90;99.90
64620;DHT22;51029;51.058;13.826;2022-10-16T07:14:03;16.90;99.90
64620;DHT22;51029;51.058;13.826;2022-10-16T07:16:31;16.90;99.90
64620;DHT22;51029;51.058;13.826;2022-10-16T07:19:02;16.90;99.90
64620;DHT22;51029;51.058;13.826;2022-10-16T07:21:33;16.90;99.90
64620;DHT22;51029;51.058;13.826;2022-10-16T07:24:03;17.00;99.90
64620;DHT22;51029;51.058;13.826;2022-10-16T07:26:30;17.10;99.90
64620;DHT22;51029;51.058;13.826;2022-10-16T07:28:57;17.20;99.90
64620;DHT22;51029;51.058;13.826;2022-10-16T07:31:24;17.30;99.90
64620;DHT22;51029;51.058;13.826;2022-10-16T07:33:50;17.30;99.90
64620;DHT22;51029;51.058;13.826;2022-10-16T07:36:18;17.30;99.90
64620;DHT22;51029;51.058;13.826;2022-10-16T07:38:44;17.30;99.90
64620;DHT22;51029;51.058;13.826;2022-10-16T07:41:13;17.30;99.90
64620;DHT22;51029;51.058;13.826;2022-10-16T07:43:39;17.30;99.90
64620;DHT22;51029;51.058;13.826;2022-10-16T07:46:05;17.30;99.90
64620;DHT22;51029;51.058;13.826;2022-10-16T07:48:32;17.30;99.90
64620;DHT22;51029;51.058;13.826;2022-10-16T07:50:59;17.30;99.90
64620;DHT22;51029;51.058;13.826;2022-10-16T07:53:26;17.40;99.90
64620;DHT22;51029;51.058;13.826;2022-10-16T07:55:52;17.50;99.90
64620;DHT22;51029;51.058;13.826;2022-10-16T07:58:17;17.50;99.90
64620;DHT22;51029;51.058;13.826;2022-10-16T08:00:43;17.50;99.90
64620;DHT22;51029;51.058;13.826;2022-10-16T08:03:08;17.50;99.90
64620;DHT22;51029;51.058;13.826;2022-10-16T08:05:34;17.70;99.90
64620;DHT22;51029;51.058;13.826;2022-10-16T08:08:01;17.90;99.90
64620;DHT22;51029;51.058;13.826;2022-10-16T08:10:28;18.10;99.90
64620;DHT22;51029;51.058;13.826;2022-10-16T08:12:54;18.30;99.90
64620;DHT22;51029;51.058;13.826;2022-10-16T08:15:20;18.50;99.90
64620;DHT22;51029;51.058;13.826;2022-10-16T08:18:06;18.70;99.90
64620;DHT22;51029;51.058;13.826;2022-10-16T08:20:32;18.80;99.90
64620;DHT22;51029;51.058;13.826;2022-10-16T08:22:59;18.70;99.90
64620;DHT22;51029;51.058;13.826;2022-10-16T08:25:25;18.70;99.90
64620;DHT22;51029;51.058;13.826;2022-10-16T08:27:51;18.70;99.90
64620;DHT22;51029;51.058;13.826;2022-10-16T08:30:18;18.70;99.90
64620;DHT22;51029;51.058;13.826;2022-10-16T08:32:44;18.90;99.90
64620;DHT22;51029;51.058;13.826;2022-10-16T08:35:10;19.00;99.90
64620;DHT22;51029;51.058;13.826;2022-10-16T08:37:37;19.30;99.90
64620;DHT22;51029;51.058;13.826;2022-10-16T08:40:04;19.60;99.90
64620;DHT22;51029;51.058;13.826;2022-10-16T08:48:26;20.30;99.90
64620;DHT22;51029;51.058;13.826;2022-10-16T08:50:53;20.50;99.90
64620;DHT22;51029;51.058;13.826;2022-10-16T08:53:48;20.60;99.90
64620;DHT22;51029;51.058;13.826;2022-10-16T08:56:14;20.60;99.90
64620;DHT22;51029;51.058;13.826;2022-10-16T08:58:40;20.60;99.90
64620;DHT22;51029;51.058;13.826;2022-10-16T09:01:12;20.60;99.90
64620;DHT22;51029;51.058;13.826;2022-10-16T09:06:44;22.10;99.90
64620;DHT22;51029;51.058;13.826;2022-10-16T09:11:45;22.70;99.90
64620;DHT22;51029;51.058;13.826;2022-10-16T09:14:35;23.40;99.90
64620;DHT22;51029;51.058;13.826;2022-10-16T09:17:46;24.60;99.90
64620;DHT22;51029;51.058;13.826;2022-10-16T09:23:04;24.80;99.50
64620;DHT22;51029;51.058;13.826;2022-10-16T09:25:33;25.60;97.50
64620;DHT22;51029;51.058;13.826;2022-10-16T09:28:00;26.30;94.90
64620;DHT22;51029;51.058;13.826;2022-10-16T09:30:28;27.10;93.00
64620;DHT22;51029;51.058;13.826;2022-10-16T09:32:55;28.00;90.20
64620;DHT22;51029;51.058;13.826;2022-10-16T09:35:31;28.90;85.50
64620;DHT22;51029;51.058;13.826;2022-10-16T09:37:57;28.70;82.80
64620;DHT22;51029;51.058;13.826;2022-10-16T09:40:38;28.10;81.50
64620;DHT22;51029;51.058;13.826;2022-10-16T09:43:26;27.30;85.70
64620;DHT22;51029;51.058;13.826;2022-10-16T09:48:22;26.50;89.60
64620;DHT22;51029;51.058;13.826;2022-10-16T09:51:03;26.50;90.60
64620;DHT22;51029;51.058;13.826;2022-10-16T09:56:34;25.90;90.50
64620;DHT22;51029;51.058;13.826;2022-10-16T09:59:10;25.60;91.50
64620;DHT22;51029;51.058;13.826;2022-10-16T10:01:38;25.60;92.10
64620;DHT22;51029;51.058;13.826;2022-10-16T10:04:05;26.60;91.60
64620;DHT22;51029;51.058;13.826;2022-10-16T10:06:36;27.00;89.50
64620;DHT22;51029;51.058;13.826;2022-10-16T10:09:37;27.60;86.80
64620;DHT22;51029;51.058;13.826;2022-10-16T10:12:05;28.00;83.60
64620;DHT22;51029;51.058;13.826;2022-10-16T10:14:58;27.90;85.00
64620;DHT22;51029;51.058;13.826;2022-10-16T10:17:28;27.50;83.80
64620;DHT22;51029;51.058;13.826;2022-10-16T10:19:58;26.70;88.60
64620;DHT22;51029;51.058;13.826;2022-10-16T10:27:51;26.40;88.60
64620;DHT22;51029;51.058;13.826;2022-10-16T10:30:25;27.30;85.20
64620;DHT22;51029;51.058;13.826;2022-10-16T10:33:14;27.90;85.50
64620;DHT22;51029;51.058;13.826;2022-10-16T10:46:59;31.90;66.80
64620;DHT22;51029;51.058;13.826;2022-10-16T10:49:01;30.60;69.40
64620;DHT22;51029;51.058;13.826;2022-10-16T10:57:09;30.20;68.30
64620;DHT22;51029;51.058;13.826;2022-10-16T10:59:51;30.30;68.80
64620;DHT22;51029;51.058;13.826;2022-10-16T11:07:55;28.30;76.20
64620;DHT22;51029;51.058;13.826;2022-10-16T11:10:26;29.00;75.70
64620;DHT22;51029;51.058;13.826;2022-10-16T11:13:01;28.40;74.50
64620;DHT22;51029;51.058;13.826;2022-10-16T11:15:34;27.70;77.40
64620;DHT22;51029;51.058;13.826;2022-10-16T11:18:16;27.40;79.50
64620;DHT22;51029;51.058;13.826;2022-10-16T11:20:49;27.30;79.00
64620;DHT22;51029;51.058;13.826;2022-10-16T11:23:26;28.30;77.60
64620;DHT22;51029;51.058;13.826;2022-10-16T11:25:57;30.00;72.40
64620;DHT22;51029;51.058;13.826;2022-10-16T11:28:33;31.00;66.00
64620;DHT22;51029;51.058;13.826;2022-10-16T11:33:54;32.30;66.20
64620;DHT22;51029;51.058;13.826;2022-10-16T11:39:23;31.40;58.70
64620;DHT22;51029;51.058;13.826;2022-10-16T11:42:04;29.90;62.20
64620;DHT22;51029;51.058;13.826;2022-10-16T11:44:42;29.00;66.20
64620;DHT22;51029;51.058;13.826;2022-10-16T11:52:39;27.20;70.90
64620;DHT22;51029;51.058;13.826;2022-10-16T11:55:20;26.80;71.90
64620;DHT22;51029;51.058;13.826;2022-10-16T11:57:56;26.30;74.00
64620;DHT22;51029;51.058;13.826;2022-10-16T12:00:28;26.60;74.80
64620;DHT22;51029;51.058;13.826;2022-10-16T12:03:14;30.00;71.60
64620;DHT22;51029;51.058;13.826;2022-10-16T12:08:25;29.70;64.30
64620;DHT22;51029;51.058;13.826;2022-10-16T12:10:51;29.90;65.40
64620;DHT22;51029;51.058;13.826;2022-10-16T12:13:35;33.20;59.00
64620;DHT22;51029;51.058;13.826;2022-10-16T12:16:24;31.90;57.70
64620;DHT22;51029;51.058;13.826;2022-10-16T12:19:07;32.00;58.20
64620;DHT22;51029;51.058;13.826;2022-10-16T12:21:35;31.70;59.00
64620;DHT22;51029;51.058;13.826;2022-10-16T12:24:02;29.50;61.70
64620;DHT22;51029;51.058;13.826;2022-10-16T12:26:32;28.20;66.10
64620;DHT22;51029;51.058;13.826;2022-10-16T12:29:30;27.00;68.70
64620;DHT22;51029;51.058;13.826;2022-10-16T12:31:57;28.00;68.90
64620;DHT22;51029;51.058;13.826;2022-10-16T12:34:37;28.70;65.90
64620;DHT22;51029;51.058;13.826;2022-10-16T12:37:33;28.30;66.00
64620;DHT22;51029;51.058;13.826;2022-10-16T12:39:59;27.70;67.50
64620;DHT22;51029;51.058;13.826;2022-10-16T12:42:36;27.20;69.20
64620;DHT22;51029;51.058;13.826;2022-10-16T12:45:27;26.80;70.90
64620;DHT22;51029;51.058;13.826;2022-10-16T12:47:54;26.80;71.50
64620;DHT22;51029;51.058;13.826;2022-10-16T12:50:39;27.00;71.70
64620;DHT22;51029;51.058;13.826;2022-10-16T12:53:19;27.80;70.70
64620;DHT22;51029;51.058;13.826;2022-10-16T12:56:13;29.30;67.40
64620;DHT22;51029;51.058;13.826;2022-10-16T13:15:44;28.20;65.00
64620;DHT22;51029;51.058;13.826;2022-10-16T13:29:31;25.60;75.10
64620;DHT22;51029;51.058;13.826;2022-10-16T13:31:59;25.40;76.60
64620;DHT22;51029;51.058;13.826;2022-10-16T13:34:25;25.50;76.80
64620;DHT22;51029;51.058;13.826;2022-10-16T13:36:53;25.60;77.30
64620;DHT22;51029;51.058;13.826;2022-10-16T13:39:28;25.30;78.10
64620;DHT22;51029;51.058;13.826;2022-10-16T13:42:04;25.10;78.60
64620;DHT22;51029;51.058;13.826;2022-10-16T13:44:40;24.70;79.60
64620;DHT22;51029;51.058;13.826;2022-10-16T13:47:16;24.40;81.10
64620;DHT22;51029;51.058;13.826;2022-10-16T13:49:42;24.10;84.30
64620;DHT22;51029;51.058;13.826;2022-10-16T13:52:17;23.80;87.50
64620;DHT22;51029;51.058;13.826;2022-10-16T13:54:43;23.60;91.20
64620;DHT22;51029;51.058;13.826;2022-10-16T13:57:16;23.30;94.50
64620;DHT22;51029;51.058;13.826;2022-10-16T13:59:42;23.10;99.90
64620;DHT22;51029;51.058;13.826;2022-10-16T14:02:25;22.80;99.90
64620;DHT22;51029;51.058;13.826;2022-10-16T14:04:52;22.90;99.90
64620;DHT22;51029;51.058;13.826;2022-10-16T14:07:30;24.20;99.90
64620;DHT22;51029;51.058;13.826;2022-10-16T14:10:05;24.60;99.90
64620;DHT22;51029;51.058;13.826;2022-10-16T14:12:32;24.60;99.90
64620;DHT22;51029;51.058;13.826;2022-10-16T14:14:59;24.10;99.90
64620;DHT22;51029;51.058;13.826;2022-10-16T14:17:32;23.80;99.90
64620;DHT22;51029;51.058;13.826;2022-10-16T14:20:00;23.40;99.90
64620;DHT22;51029;51.058;13.826;2022-10-16T14:22:38;23.10;99.90
64620;DHT22;51029;51.058;13.826;2022-10-16T14:25:24;22.90;99.90
64620;DHT22;51029;51.058;13.826;2022-10-16T14:27:58;22.60;99.90
64620;DHT22;51029;51.058;13.826;2022-10-16T14:30:25;22.50;99.90
64620;DHT22;51029;51.058;13.826;2022-10-16T14:33:06;22.50;99.90
64620;DHT22;51029;51.058;13.826;2022-10-16T14:35:37;22.40;99.90
64620;DHT22;51029;51.058;13.826;2022-10-16T14:38:05;22.30;99.90
64620;DHT22;51029;51.058;13.826;2022-10-16T14:40:33;22.00;99.90
64620;DHT22;51029;51.058;13.826;2022-10-16T14:43:01;22.00;99.90
64620;DHT22;51029;51.058;13.826;2022-10-16T14:45:29;21.80;99.90
64620;DHT22;51029;51.058;13.826;2022-10-16T14:48:00;21.70;99.90
64620;DHT22;51029;51.058;13.826;2022-10-16T14:50:26;21.60;99.90
64620;DHT22;51029;51.058;13.826;2022-10-16T14:52:52;21.50;99.90
64620;DHT22;51029;51.058;13.826;2022-10-16T14:55:18;21.40;99.90
64620;DHT22;51029;51.058;13.826;2022-10-16T14:57:44;21.20;99.90
64620;DHT22;51029;51.058;13.826;2022-10-16T15:02:42;21.20;99.90
64620;DHT22;51029;51.058;13.826;2022-10-16T15:07:41;21.20;99.90
64620;DHT22;51029;51.058;13.826;2022-10-16T15:10:07;21.20;99.90
64620;DHT22;51029;51.058;13.826;2022-10-16T15:12:32;21.30;99.90
64620;DHT22;51029;51.058;13.826;2022-10-16T15:14:58;21.20;99.90
64620;DHT22;51029;51.058;13.826;2022-10-16T15:17:24;21.10;99.90
64620;DHT22;51029;51.058;13.826;2022-10-16T15:19:49;21.10;99.90
64620;DHT22;51029;51.058;13.826;2022-10-16T15:22:16;21.10;99.90
64620;DHT22;51029;51.058;13.826;2022-10-16T15:24:42;21.20;99.90
64620;DHT22;51029;51.058;13.826;2022-10-16T15:27:08;21.20;99.90
64620;DHT22;51029;51.058;13.826;2022-10-16T15:29:33;21.00;99.90
64620;DHT22;51029;51.058;13.826;2022-10-16T15:31:59;20.90;99.90
64620;DHT22;51029;51.058;13.826;2022-10-16T15:34:24;20.70;99.90
64620;DHT22;51029;51.058;13.826;2022-10-16T15:36:50;20.60;99.90
64620;DHT22;51029;51.058;13.826;2022-10-16T15:39:18;20.50;99.90
64620;DHT22;51029;51.058;13.826;2022-10-16T15:41:45;20.20;99.90
64620;DHT22;51029;51.058;13.826;2022-10-16T15:44:13;20.00;99.90
64620;DHT22;51029;51.058;13.826;2022-10-16T15:46:38;19.90;99.90
64620;DHT22;51029;51.058;13.826;2022-10-16T15:49:04;19.70;99.90
64620;DHT22;51029;51.058;13.826;2022-10-16T15:51:29;19.60;99.90
64620;DHT22;51029;51.058;13.826;2022-10-16T15:53:58;19.50;99.90
64620;DHT22;51029;51.058;13.826;2022-10-16T15:56:24;19.30;99.90
64620;DHT22;51029;51.058;13.826;2022-10-16T15:58:52;19.30;99.90
64620;DHT22;51029;51.058;13.826;2022-10-16T16:01:18;19.20;99.90
64620;DHT22;51029;51.058;13.826;2022-10-16T16:03:43;19.10;99.90
64620;DHT22;51029;51.058;13.826;2022-10-16T16:06:11;19.00;99.90
64620;DHT22;51029;51.058;13.826;2022-10-16T16:08:37;19.00;99.90
64620;DHT22;51029;51.058;13.826;2022-10-16T16:11:09;18.90;99.90
64620;DHT22;51029;51.058;13.826;2022-10-16T16:13:35;18.80;99.90
64620;DHT22;51029;51.058;13.826;2022-10-16T16:16:06;18.70;99.90
64620;DHT22;51029;51.058;13.826;2022-10-16T16:18:32;18.50;99.90
64620;DHT22;51029;51.058;13.826;2022-10-16T16:20:58;18.50;99.90
64620;DHT22;51029;51.058;13.826;2022-10-16T16:23:24;18.40;99.90
64620;DHT22;51029;51.058;13.826;2022-10-16T16:28:36;18.20;99.90
64620;DHT22;51029;51.058;13.826;2022-10-16T16:31:02;18.10;99.90
64620;DHT22;51029;51.058;13.826;2022-10-16T16:33:28;18.00;99.90
64620;DHT22;51029;51.058;13.826;2022-10-16T16:36:02;17.90;99.90
64620;DHT22;51029;51.058;13.826;2022-10-16T16:38:28;17.80;99.90
64620;DHT22;51029;51.058;13.826;2022-10-16T16:40:54;17.70;99.90
64620;DHT22;51029;51.058;13.826;2022-10-16T16:43:24;17.70;99.90
64620;DHT22;51029;51.058;13.826;2022-10-16T16:45:49;17.60;99.90
64620;DHT22;51029;51.058;13.826;2022-10-16T16:48:15;17.50;99.90
64620;DHT22;51029;51.058;13.826;2022-10-16T16:50:41;17.40;99.90
64620;DHT22;51029;51.058;13.826;2022-10-16T16:53:06;17.40;99.90
64620;DHT22;51029;51.058;13.826;2022-10-16T16:55:33;17.30;99.90
64620;DHT22;51029;51.058;13.826;2022-10-16T16:57:58;17.20;99.90
64620;DHT22;51029;51.058;13.826;2022-10-16T17:00:24;17.20;99.90
64620;DHT22;51029;51.058;13.826;2022-10-16T17:02:50;17.10;99.90
64620;DHT22;51029;51.058;13.826;2022-10-16T17:05:16;17.00;99.90
64620;DHT22;51029;51.058;13.826;2022-10-16T17:07:42;17.00;99.90
64620;DHT22;51029;51.058;13.826;2022-10-16T17:10:08;16.90;99.90
64620;DHT22;51029;51.058;13.826;2022-10-16T17:12:34;16.90;99.90
64620;DHT22;51029;51.058;13.826;2022-10-16T17:15:01;16.90;99.90
64620;DHT22;51029;51.058;13.826;2022-10-16T17:17:26;16.80;99.90